sensor_id;sensor_type;location;lat;lon;timestamp;P1;durP1;ratioP1;P2;durP2;ratioP2
29548;SDS011;16487;53.094;8.800;2023-04-25T00:01:35;15.07;;;4.37;;
29548;SDS011;16487;53.094;8.800;2023-04-25T00:04:04;17.70;;;6.00;;
29548;SDS011;16487;53.094;8.800;2023-04-25T00:06:31;14.23;;;4.83;;
29548;SDS011;16487;53.094;8.800;2023-04-25T00:08:59;7.27;;;3.90;;
29548;SDS011;16487;53.094;8.800;2023-04-25T00:11:26;14.07;;;5.37;;
29548;SDS011;16487;53.094;8.800;2023-04-25T00:13:55;12.90;;;5.20;;
29548;SDS011;16487;53.094;8.800;2023-04-25T00:16:23;18.70;;;6.07;;
29548;SDS011;16487;53.094;8.800;2023-04-25T00:18:51;14.30;;;4.30;;
29548;SDS011;16487;53.094;8.800;2023-04-25T00:21:18;21.73;;;6.40;;
29548;SDS011;16487;53.094;8.800;2023-04-25T00:23:45;11.77;;;4.30;;
29548;SDS011;16487;53.094;8.800;2023-04-25T00:26:13;12.23;;;4.70;;
29548;SDS011;16487;53.094;8.800;2023-04-25T00:28:41;14.57;;;7.17;;
29548;SDS011;16487;53.094;8.800;2023-04-25T00:31:09;19.63;;;5.77;;
29548;SDS011;16487;53.094;8.800;2023-04-25T00:33:37;9.57;;;4.80;;
29548;SDS011;16487;53.094;8.800;2023-04-25T00:36:04;15.87;;;5.37;;
29548;SDS011;16487;53.094;8.800;2023-04-25T00:38:33;14.17;;;4.30;;
29548;SDS011;16487;53.094;8.800;2023-04-25T00:41:00;15.50;;;5.57;;
29548;SDS011;16487;53.094;8.800;2023-04-25T00:43:28;12.90;;;5.00;;
29548;SDS011;16487;53.094;8.800;2023-04-25T00:45:57;27.73;;;6.20;;
29548;SDS011;16487;53.094;8.800;2023-04-25T00:48:30;20.40;;;6.10;;
29548;SDS011;16487;53.094;8.800;2023-04-25T00:50:58;21.30;;;7.00;;
29548;SDS011;16487;53.094;8.800;2023-04-25T00:53:26;17.57;;;7.67;;
29548;SDS011;16487;53.094;8.800;2023-04-25T00:55:55;12.77;;;3.90;;
29548;SDS011;16487;53.094;8.800;2023-04-25T00:58:22;17.90;;;6.90;;
29548;SDS011;16487;53.094;8.800;2023-04-25T01:00:50;16.50;;;6.43;;
29548;SDS011;16487;53.094;8.800;2023-04-25T01:03:19;12.93;;;5.80;;
29548;SDS011;16487;53.094;8.800;2023-04-25T01:05:48;17.63;;;5.73;;
29548;SDS011;16487;53.094;8.800;2023-04-25T01:08:15;19.73;;;6.00;;
29548;SDS011;16487;53.094;8.800;2023-04-25T01:10:43;17.10;;;5.20;;
29548;SDS011;16487;53.094;8.800;2023-04-25T01:13:10;15.50;;;4.90;;
29548;SDS011;16487;53.094;8.800;2023-04-25T01:15:38;13.37;;;4.77;;
29548;SDS011;16487;53.094;8.800;2023-04-25T01:18:05;19.07;;;4.93;;
29548;SDS011;16487;53.094;8.800;2023-04-25T01:20:33;9.03;;;5.07;;
29548;SDS011;16487;53.094;8.800;2023-04-25T01:23:02;14.07;;;5.13;;
29548;SDS011;16487;53.094;8.800;2023-04-25T01:25:30;13.30;;;4.83;;
29548;SDS011;16487;53.094;8.800;2023-04-25T01:27:58;17.30;;;5.97;;
29548;SDS011;16487;53.094;8.800;2023-04-25T01:30:27;12.00;;;4.10;;
29548;SDS011;16487;53.094;8.800;2023-04-25T01:32:56;17.53;;;5.50;;
29548;SDS011;16487;53.094;8.800;2023-04-25T01:35:24;13.33;;;5.67;;
29548;SDS011;16487;53.094;8.800;2023-04-25T01:37:53;14.33;;;4.33;;
29548;SDS011;16487;53.094;8.800;2023-04-25T01:40:22;14.30;;;5.33;;
29548;SDS011;16487;53.094;8.800;2023-04-25T01:42:51;11.60;;;4.50;;
29548;SDS011;16487;53.094;8.800;2023-04-25T01:45:19;14.07;;;4.93;;
29548;SDS011;16487;53.094;8.800;2023-04-25T01:47:48;9.27;;;4.77;;
29548;SDS011;16487;53.094;8.800;2023-04-25T01:50:15;15.40;;;5.80;;
29548;SDS011;16487;53.094;8.800;2023-04-25T01:52:43;13.90;;;4.57;;
29548;SDS011;16487;53.094;8.800;2023-04-25T01:55:11;15.63;;;5.47;;
29548;SDS011;16487;53.094;8.800;2023-04-25T01:57:48;10.10;;;4.43;;
29548;SDS011;16487;53.094;8.800;2023-04-25T02:00:16;15.47;;;5.20;;
29548;SDS011;16487;53.094;8.800;2023-04-25T02:02:43;9.27;;;4.07;;
29548;SDS011;16487;53.094;8.800;2023-04-25T02:05:24;7.97;;;4.50;;
29548;SDS011;16487;53.094;8.800;2023-04-25T02:07:52;16.73;;;4.90;;
29548;SDS011;16487;53.094;8.800;2023-04-25T02:10:19;12.67;;;4.63;;
29548;SDS011;16487;53.094;8.800;2023-04-25T02:13:01;12.23;;;4.77;;
29548;SDS011;16487;53.094;8.800;2023-04-25T02:15:49;12.50;;;4.77;;
29548;SDS011;16487;53.094;8.800;2023-04-25T02:18:19;14.80;;;4.83;;
29548;SDS011;16487;53.094;8.800;2023-04-25T02:20:46;12.27;;;4.70;;
29548;SDS011;16487;53.094;8.800;2023-04-25T02:23:13;15.17;;;4.90;;
29548;SDS011;16487;53.094;8.800;2023-04-25T02:25:41;15.97;;;5.37;;
29548;SDS011;16487;53.094;8.800;2023-04-25T02:28:09;16.97;;;5.90;;
29548;SDS011;16487;53.094;8.800;2023-04-25T02:30:37;15.40;;;4.37;;
29548;SDS011;16487;53.094;8.800;2023-04-25T02:33:04;13.47;;;4.47;;
29548;SDS011;16487;53.094;8.800;2023-04-25T02:35:32;10.80;;;5.07;;
29548;SDS011;16487;53.094;8.800;2023-04-25T02:37:59;20.67;;;5.53;;
29548;SDS011;16487;53.094;8.800;2023-04-25T02:40:27;9.47;;;4.20;;
29548;SDS011;16487;53.094;8.800;2023-04-25T02:42:55;15.23;;;5.20;;
29548;SDS011;16487;53.094;8.800;2023-04-25T02:45:23;11.57;;;4.80;;
29548;SDS011;16487;53.094;8.800;2023-04-25T02:47:51;11.13;;;4.17;;
29548;SDS011;16487;53.094;8.800;2023-04-25T02:50:18;12.27;;;4.80;;
29548;SDS011;16487;53.094;8.800;2023-04-25T02:52:46;19.60;;;4.80;;
29548;SDS011;16487;53.094;8.800;2023-04-25T02:55:18;9.77;;;4.40;;
29548;SDS011;16487;53.094;8.800;2023-04-25T02:57:46;10.87;;;5.03;;
29548;SDS011;16487;53.094;8.800;2023-04-25T03:00:21;9.00;;;4.30;;
29548;SDS011;16487;53.094;8.800;2023-04-25T03:02:50;23.03;;;4.60;;
29548;SDS011;16487;53.094;8.800;2023-04-25T03:05:18;12.77;;;4.60;;
29548;SDS011;16487;53.094;8.800;2023-04-25T03:07:45;15.07;;;4.67;;
29548;SDS011;16487;53.094;8.800;2023-04-25T03:10:13;10.40;;;4.20;;
29548;SDS011;16487;53.094;8.800;2023-04-25T03:12:40;14.90;;;4.27;;
29548;SDS011;16487;53.094;8.800;2023-04-25T03:15:08;18.63;;;5.50;;
29548;SDS011;16487;53.094;8.800;2023-04-25T03:17:35;18.50;;;5.10;;
29548;SDS011;16487;53.094;8.800;2023-04-25T03:20:05;8.70;;;3.80;;
29548;SDS011;16487;53.094;8.800;2023-04-25T03:22:33;12.97;;;4.70;;
29548;SDS011;16487;53.094;8.800;2023-04-25T03:25:01;14.20;;;5.17;;
29548;SDS011;16487;53.094;8.800;2023-04-25T03:27:29;15.37;;;3.97;;
29548;SDS011;16487;53.094;8.800;2023-04-25T03:29:56;13.10;;;4.60;;
29548;SDS011;16487;53.094;8.800;2023-04-25T03:32:24;8.87;;;5.10;;
29548;SDS011;16487;53.094;8.800;2023-04-25T03:34:51;13.80;;;4.47;;
29548;SDS011;16487;53.094;8.800;2023-04-25T03:37:20;17.83;;;5.67;;
29548;SDS011;16487;53.094;8.800;2023-04-25T03:39:48;16.30;;;4.70;;
29548;SDS011;16487;53.094;8.800;2023-04-25T03:42:15;13.70;;;4.90;;
29548;SDS011;16487;53.094;8.800;2023-04-25T03:44:43;10.47;;;3.63;;
29548;SDS011;16487;53.094;8.800;2023-04-25T03:47:12;12.63;;;4.70;;
29548;SDS011;16487;53.094;8.800;2023-04-25T03:49:39;8.80;;;4.40;;
29548;SDS011;16487;53.094;8.800;2023-04-25T03:52:07;9.47;;;4.63;;
29548;SDS011;16487;53.094;8.800;2023-04-25T03:54:39;6.47;;;2.80;;
29548;SDS011;16487;53.094;8.800;2023-04-25T03:57:13;9.40;;;4.20;;
29548;SDS011;16487;53.094;8.800;2023-04-25T03:59:42;9.60;;;3.80;;
29548;SDS011;16487;53.094;8.800;2023-04-25T04:02:11;10.13;;;3.63;;
29548;SDS011;16487;53.094;8.800;2023-04-25T04:04:40;11.23;;;3.70;;
29548;SDS011;16487;53.094;8.800;2023-04-25T04:07:08;12.10;;;3.70;;
29548;SDS011;16487;53.094;8.800;2023-04-25T04:09:41;12.17;;;3.70;;
29548;SDS011;16487;53.094;8.800;2023-04-25T04:12:14;14.93;;;4.57;;
29548;SDS011;16487;53.094;8.800;2023-04-25T04:14:42;9.80;;;5.13;;
29548;SDS011;16487;53.094;8.800;2023-04-25T04:17:09;7.47;;;3.73;;
29548;SDS011;16487;53.094;8.800;2023-04-25T04:19:36;12.27;;;3.60;;
29548;SDS011;16487;53.094;8.800;2023-04-25T04:22:09;8.20;;;3.43;;
29548;SDS011;16487;53.094;8.800;2023-04-25T04:24:37;14.50;;;3.60;;
29548;SDS011;16487;53.094;8.800;2023-04-25T04:27:08;12.63;;;3.90;;
29548;SDS011;16487;53.094;8.800;2023-04-25T04:29:38;12.80;;;3.80;;
29548;SDS011;16487;53.094;8.800;2023-04-25T04:32:22;13.93;;;4.23;;
29548;SDS011;16487;53.094;8.800;2023-04-25T04:34:50;15.73;;;4.63;;
29548;SDS011;16487;53.094;8.800;2023-04-25T04:37:18;11.50;;;4.37;;
29548;SDS011;16487;53.094;8.800;2023-04-25T04:39:45;12.20;;;3.20;;
29548;SDS011;16487;53.094;8.800;2023-04-25T04:42:25;10.53;;;4.93;;
29548;SDS011;16487;53.094;8.800;2023-04-25T04:45:03;13.93;;;5.13;;
29548;SDS011;16487;53.094;8.800;2023-04-25T04:48:00;10.63;;;3.13;;
29548;SDS011;16487;53.094;8.800;2023-04-25T04:50:37;9.40;;;3.40;;
29548;SDS011;16487;53.094;8.800;2023-04-25T04:53:28;11.57;;;3.20;;
29548;SDS011;16487;53.094;8.800;2023-04-25T04:56:12;7.80;;;2.43;;
29548;SDS011;16487;53.094;8.800;2023-04-25T04:58:59;6.40;;;3.23;;
29548;SDS011;16487;53.094;8.800;2023-04-25T05:01:59;14.50;;;3.30;;
29548;SDS011;16487;53.094;8.800;2023-04-25T05:04:42;8.10;;;3.53;;
29548;SDS011;16487;53.094;8.800;2023-04-25T05:07:28;13.87;;;3.70;;
29548;SDS011;16487;53.094;8.800;2023-04-25T05:10:13;6.87;;;2.90;;
29548;SDS011;16487;53.094;8.800;2023-04-25T05:12:54;12.43;;;3.17;;
29548;SDS011;16487;53.094;8.800;2023-04-25T05:15:51;6.63;;;2.63;;
29548;SDS011;16487;53.094;8.800;2023-04-25T05:18:31;12.20;;;3.87;;
29548;SDS011;16487;53.094;8.800;2023-04-25T05:21:17;9.47;;;3.47;;
29548;SDS011;16487;53.094;8.800;2023-04-25T05:24:00;10.20;;;4.30;;
29548;SDS011;16487;53.094;8.800;2023-04-25T05:26:46;7.60;;;3.37;;
29548;SDS011;16487;53.094;8.800;2023-04-25T05:29:20;8.13;;;2.60;;
29548;SDS011;16487;53.094;8.800;2023-04-25T05:32:01;16.93;;;3.40;;
29548;SDS011;16487;53.094;8.800;2023-04-25T05:34:29;13.80;;;3.53;;
29548;SDS011;16487;53.094;8.800;2023-04-25T05:37:00;8.97;;;3.23;;
29548;SDS011;16487;53.094;8.800;2023-04-25T05:39:29;8.03;;;3.43;;
29548;SDS011;16487;53.094;8.800;2023-04-25T05:42:14;12.20;;;3.50;;
29548;SDS011;16487;53.094;8.800;2023-04-25T05:45:02;8.73;;;2.87;;
29548;SDS011;16487;53.094;8.800;2023-04-25T05:47:37;7.10;;;3.50;;
29548;SDS011;16487;53.094;8.800;2023-04-25T05:50:27;12.50;;;3.23;;
29548;SDS011;16487;53.094;8.800;2023-04-25T05:53:00;7.73;;;3.30;;
29548;SDS011;16487;53.094;8.800;2023-04-25T05:55:30;7.43;;;2.33;;
29548;SDS011;16487;53.094;8.800;2023-04-25T05:57:59;12.20;;;3.43;;
29548;SDS011;16487;53.094;8.800;2023-04-25T06:00:26;8.47;;;2.70;;
29548;SDS011;16487;53.094;8.800;2023-04-25T06:02:55;6.43;;;2.70;;
29548;SDS011;16487;53.094;8.800;2023-04-25T06:05:23;7.60;;;3.00;;
29548;SDS011;16487;53.094;8.800;2023-04-25T06:07:51;5.23;;;2.57;;
29548;SDS011;16487;53.094;8.800;2023-04-25T06:10:20;11.53;;;4.17;;
29548;SDS011;16487;53.094;8.800;2023-04-25T06:12:48;12.13;;;4.67;;
29548;SDS011;16487;53.094;8.800;2023-04-25T06:15:17;8.17;;;2.47;;
29548;SDS011;16487;53.094;8.800;2023-04-25T06:17:56;7.77;;;2.63;;
29548;SDS011;16487;53.094;8.800;2023-04-25T06:20:23;6.60;;;1.97;;
29548;SDS011;16487;53.094;8.800;2023-04-25T06:22:52;7.83;;;3.43;;
29548;SDS011;16487;53.094;8.800;2023-04-25T06:25:24;3.73;;;2.27;;
29548;SDS011;16487;53.094;8.800;2023-04-25T06:27:51;7.53;;;3.30;;
29548;SDS011;16487;53.094;8.800;2023-04-25T06:30:18;7.90;;;2.40;;
29548;SDS011;16487;53.094;8.800;2023-04-25T06:32:46;3.90;;;1.93;;
29548;SDS011;16487;53.094;8.800;2023-04-25T06:35:15;2.90;;;1.77;;
29548;SDS011;16487;53.094;8.800;2023-04-25T06:37:43;9.50;;;2.30;;
29548;SDS011;16487;53.094;8.800;2023-04-25T06:40:10;7.63;;;1.97;;
29548;SDS011;16487;53.094;8.800;2023-04-25T06:42:38;9.30;;;3.50;;
29548;SDS011;16487;53.094;8.800;2023-04-25T06:45:31;5.50;;;2.50;;
29548;SDS011;16487;53.094;8.800;2023-04-25T06:47:59;9.20;;;2.20;;
29548;SDS011;16487;53.094;8.800;2023-04-25T06:50:28;6.13;;;2.30;;
29548;SDS011;16487;53.094;8.800;2023-04-25T06:52:56;8.47;;;1.43;;
29548;SDS011;16487;53.094;8.800;2023-04-25T06:55:23;5.70;;;1.70;;
29548;SDS011;16487;53.094;8.800;2023-04-25T06:58:07;7.77;;;2.40;;
29548;SDS011;16487;53.094;8.800;2023-04-25T07:00:53;8.83;;;2.57;;
29548;SDS011;16487;53.094;8.800;2023-04-25T07:03:23;7.33;;;2.27;;
29548;SDS011;16487;53.094;8.800;2023-04-25T07:05:56;7.00;;;3.07;;
29548;SDS011;16487;53.094;8.800;2023-04-25T07:08:24;13.80;;;3.90;;
29548;SDS011;16487;53.094;8.800;2023-04-25T07:10:52;6.50;;;2.93;;
29548;SDS011;16487;53.094;8.800;2023-04-25T07:13:19;9.23;;;2.80;;
29548;SDS011;16487;53.094;8.800;2023-04-25T07:15:47;9.90;;;2.03;;
29548;SDS011;16487;53.094;8.800;2023-04-25T07:18:16;6.13;;;2.67;;
29548;SDS011;16487;53.094;8.800;2023-04-25T07:20:43;11.47;;;2.77;;
29548;SDS011;16487;53.094;8.800;2023-04-25T07:23:13;8.80;;;2.70;;
29548;SDS011;16487;53.094;8.800;2023-04-25T07:25:41;4.93;;;2.53;;
29548;SDS011;16487;53.094;8.800;2023-04-25T07:28:09;6.40;;;2.00;;
29548;SDS011;16487;53.094;8.800;2023-04-25T07:30:36;7.73;;;2.20;;
29548;SDS011;16487;53.094;8.800;2023-04-25T07:33:03;4.20;;;1.97;;
29548;SDS011;16487;53.094;8.800;2023-04-25T07:35:31;9.10;;;2.30;;
29548;SDS011;16487;53.094;8.800;2023-04-25T07:37:59;5.23;;;2.10;;
29548;SDS011;16487;53.094;8.800;2023-04-25T07:40:27;6.27;;;1.70;;
29548;SDS011;16487;53.094;8.800;2023-04-25T07:43:00;4.20;;;2.13;;
29548;SDS011;16487;53.094;8.800;2023-04-25T07:45:37;7.53;;;1.77;;
29548;SDS011;16487;53.094;8.800;2023-04-25T07:48:05;6.97;;;2.40;;
29548;SDS011;16487;53.094;8.800;2023-04-25T07:50:36;6.07;;;2.60;;
29548;SDS011;16487;53.094;8.800;2023-04-25T07:53:04;7.57;;;1.40;;
29548;SDS011;16487;53.094;8.800;2023-04-25T07:55:37;2.40;;;1.63;;
29548;SDS011;16487;53.094;8.800;2023-04-25T07:58:09;4.47;;;1.87;;
29548;SDS011;16487;53.094;8.800;2023-04-25T08:00:40;5.20;;;1.53;;
29548;SDS011;16487;53.094;8.800;2023-04-25T08:03:30;3.83;;;1.57;;
29548;SDS011;16487;53.094;8.800;2023-04-25T08:05:59;5.10;;;1.70;;
29548;SDS011;16487;53.094;8.800;2023-04-25T08:08:33;9.60;;;2.23;;
29548;SDS011;16487;53.094;8.800;2023-04-25T08:11:01;5.60;;;1.67;;
29548;SDS011;16487;53.094;8.800;2023-04-25T08:13:30;6.00;;;2.03;;
29548;SDS011;16487;53.094;8.800;2023-04-25T08:15:58;9.33;;;2.20;;
29548;SDS011;16487;53.094;8.800;2023-04-25T08:18:25;6.20;;;2.23;;
29548;SDS011;16487;53.094;8.800;2023-04-25T08:20:53;6.83;;;2.40;;
29548;SDS011;16487;53.094;8.800;2023-04-25T08:23:20;5.90;;;1.80;;
29548;SDS011;16487;53.094;8.800;2023-04-25T08:26:03;6.43;;;1.80;;
29548;SDS011;16487;53.094;8.800;2023-04-25T08:28:34;4.10;;;1.73;;
29548;SDS011;16487;53.094;8.800;2023-04-25T08:31:01;6.20;;;2.80;;
29548;SDS011;16487;53.094;8.800;2023-04-25T08:33:36;2.37;;;1.00;;
29548;SDS011;16487;53.094;8.800;2023-04-25T08:36:21;3.10;;;1.10;;
29548;SDS011;16487;53.094;8.800;2023-04-25T08:39:12;2.53;;;1.20;;
29548;SDS011;16487;53.094;8.800;2023-04-25T08:41:49;1.47;;;1.07;;
29548;SDS011;16487;53.094;8.800;2023-04-25T08:44:17;6.13;;;1.50;;
29548;SDS011;16487;53.094;8.800;2023-04-25T08:46:44;3.50;;;1.33;;
29548;SDS011;16487;53.094;8.800;2023-04-25T08:49:24;2.53;;;1.37;;
29548;SDS011;16487;53.094;8.800;2023-04-25T08:51:52;2.10;;;1.30;;
29548;SDS011;16487;53.094;8.800;2023-04-25T08:54:22;1.40;;;0.90;;
29548;SDS011;16487;53.094;8.800;2023-04-25T08:57:04;4.60;;;1.63;;
29548;SDS011;16487;53.094;8.800;2023-04-25T08:59:32;3.27;;;0.73;;
29548;SDS011;16487;53.094;8.800;2023-04-25T09:02:00;4.70;;;1.53;;
29548;SDS011;16487;53.094;8.800;2023-04-25T09:04:30;2.60;;;1.47;;
29548;SDS011;16487;53.094;8.800;2023-04-25T09:06:59;5.70;;;1.50;;
29548;SDS011;16487;53.094;8.800;2023-04-25T09:09:26;4.20;;;1.43;;
29548;SDS011;16487;53.094;8.800;2023-04-25T09:11:54;3.47;;;1.37;;
29548;SDS011;16487;53.094;8.800;2023-04-25T09:14:25;1.43;;;0.70;;
29548;SDS011;16487;53.094;8.800;2023-04-25T09:17:05;3.53;;;1.33;;
29548;SDS011;16487;53.094;8.800;2023-04-25T09:19:44;3.43;;;1.30;;
29548;SDS011;16487;53.094;8.800;2023-04-25T09:22:29;6.50;;;1.90;;
29548;SDS011;16487;53.094;8.800;2023-04-25T09:24:57;2.60;;;2.27;;
29548;SDS011;16487;53.094;8.800;2023-04-25T09:27:29;3.13;;;1.30;;
29548;SDS011;16487;53.094;8.800;2023-04-25T09:30:08;3.70;;;2.07;;
29548;SDS011;16487;53.094;8.800;2023-04-25T09:32:55;5.80;;;1.57;;
29548;SDS011;16487;53.094;8.800;2023-04-25T09:35:23;1.77;;;1.20;;
29548;SDS011;16487;53.094;8.800;2023-04-25T09:37:52;1.90;;;0.90;;
29548;SDS011;16487;53.094;8.800;2023-04-25T09:40:46;3.40;;;1.00;;
29548;SDS011;16487;53.094;8.800;2023-04-25T09:43:23;5.40;;;1.57;;
29548;SDS011;16487;53.094;8.800;2023-04-25T09:45:54;4.27;;;1.33;;
29548;SDS011;16487;53.094;8.800;2023-04-25T09:48:25;2.80;;;1.40;;
29548;SDS011;16487;53.094;8.800;2023-04-25T09:51:07;3.90;;;1.50;;
29548;SDS011;16487;53.094;8.800;2023-04-25T09:53:37;5.60;;;1.67;;
29548;SDS011;16487;53.094;8.800;2023-04-25T09:56:17;3.23;;;1.33;;
29548;SDS011;16487;53.094;8.800;2023-04-25T09:58:48;3.90;;;1.53;;
29548;SDS011;16487;53.094;8.800;2023-04-25T10:01:21;5.17;;;2.20;;
29548;SDS011;16487;53.094;8.800;2023-04-25T10:04:03;3.10;;;1.80;;
29548;SDS011;16487;53.094;8.800;2023-04-25T10:06:55;3.17;;;1.70;;
29548;SDS011;16487;53.094;8.800;2023-04-25T10:09:26;5.73;;;1.70;;
29548;SDS011;16487;53.094;8.800;2023-04-25T10:11:58;2.03;;;1.60;;
29548;SDS011;16487;53.094;8.800;2023-04-25T10:14:26;4.03;;;1.20;;
29548;SDS011;16487;53.094;8.800;2023-04-25T10:16:56;5.60;;;1.87;;
29548;SDS011;16487;53.094;8.800;2023-04-25T10:19:24;2.27;;;1.30;;
29548;SDS011;16487;53.094;8.800;2023-04-25T10:21:54;2.37;;;0.80;;
29548;SDS011;16487;53.094;8.800;2023-04-25T10:24:29;4.80;;;1.00;;
29548;SDS011;16487;53.094;8.800;2023-04-25T10:26:56;4.03;;;1.23;;
29548;SDS011;16487;53.094;8.800;2023-04-25T10:29:25;2.87;;;1.03;;
29548;SDS011;16487;53.094;8.800;2023-04-25T10:31:53;4.87;;;0.80;;
29548;SDS011;16487;53.094;8.800;2023-04-25T10:34:25;6.30;;;1.20;;
29548;SDS011;16487;53.094;8.800;2023-04-25T10:37:05;2.13;;;0.90;;
29548;SDS011;16487;53.094;8.800;2023-04-25T10:39:35;2.50;;;0.83;;
29548;SDS011;16487;53.094;8.800;2023-04-25T10:42:02;3.20;;;0.63;;
29548;SDS011;16487;53.094;8.800;2023-04-25T10:44:30;2.37;;;1.20;;
29548;SDS011;16487;53.094;8.800;2023-04-25T10:46:58;3.90;;;0.90;;
29548;SDS011;16487;53.094;8.800;2023-04-25T10:49:31;3.43;;;1.20;;
29548;SDS011;16487;53.094;8.800;2023-04-25T10:52:16;2.87;;;1.17;;
29548;SDS011;16487;53.094;8.800;2023-04-25T10:54:48;3.60;;;1.17;;
29548;SDS011;16487;53.094;8.800;2023-04-25T11:00:06;1.17;;;0.77;;
29548;SDS011;16487;53.094;8.800;2023-04-25T11:02:43;2.23;;;1.37;;
29548;SDS011;16487;53.094;8.800;2023-04-25T11:05:15;3.93;;;1.40;;
29548;SDS011;16487;53.094;8.800;2023-04-25T11:07:50;4.00;;;1.43;;
29548;SDS011;16487;53.094;8.800;2023-04-25T11:10:38;3.87;;;1.60;;
29548;SDS011;16487;53.094;8.800;2023-04-25T11:13:07;2.63;;;1.33;;
29548;SDS011;16487;53.094;8.800;2023-04-25T11:15:34;6.23;;;1.60;;
29548;SDS011;16487;53.094;8.800;2023-04-25T11:18:01;3.57;;;2.00;;
29548;SDS011;16487;53.094;8.800;2023-04-25T11:20:31;6.43;;;1.93;;
29548;SDS011;16487;53.094;8.800;2023-04-25T11:22:58;5.03;;;1.40;;
29548;SDS011;16487;53.094;8.800;2023-04-25T11:25:25;6.07;;;2.27;;
29548;SDS011;16487;53.094;8.800;2023-04-25T11:27:53;4.17;;;1.77;;
29548;SDS011;16487;53.094;8.800;2023-04-25T11:30:21;6.63;;;1.73;;
29548;SDS011;16487;53.094;8.800;2023-04-25T11:32:50;2.83;;;1.40;;
29548;SDS011;16487;53.094;8.800;2023-04-25T11:35:18;4.17;;;1.90;;
29548;SDS011;16487;53.094;8.800;2023-04-25T11:37:47;5.03;;;1.43;;
29548;SDS011;16487;53.094;8.800;2023-04-25T11:40:15;2.83;;;1.20;;
29548;SDS011;16487;53.094;8.800;2023-04-25T11:42:43;4.40;;;1.70;;
29548;SDS011;16487;53.094;8.800;2023-04-25T11:45:11;5.67;;;1.50;;
29548;SDS011;16487;53.094;8.800;2023-04-25T11:47:40;4.70;;;1.77;;
29548;SDS011;16487;53.094;8.800;2023-04-25T11:50:08;4.20;;;2.47;;
29548;SDS011;16487;53.094;8.800;2023-04-25T11:52:37;3.40;;;1.43;;
29548;SDS011;16487;53.094;8.800;2023-04-25T11:55:08;9.33;;;2.00;;
29548;SDS011;16487;53.094;8.800;2023-04-25T11:57:38;4.90;;;1.50;;
29548;SDS011;16487;53.094;8.800;2023-04-25T12:00:10;5.47;;;1.40;;
29548;SDS011;16487;53.094;8.800;2023-04-25T12:02:43;5.20;;;1.80;;
29548;SDS011;16487;53.094;8.800;2023-04-25T12:05:13;3.07;;;0.90;;
29548;SDS011;16487;53.094;8.800;2023-04-25T12:08:11;3.13;;;1.87;;
29548;SDS011;16487;53.094;8.800;2023-04-25T12:10:41;1.97;;;0.83;;
29548;SDS011;16487;53.094;8.800;2023-04-25T12:13:22;1.93;;;0.70;;
29548;SDS011;16487;53.094;8.800;2023-04-25T12:15:51;2.00;;;0.93;;
29548;SDS011;16487;53.094;8.800;2023-04-25T12:18:19;1.43;;;0.90;;
29548;SDS011;16487;53.094;8.800;2023-04-25T12:20:46;2.00;;;0.70;;
29548;SDS011;16487;53.094;8.800;2023-04-25T12:23:14;2.10;;;0.67;;
29548;SDS011;16487;53.094;8.800;2023-04-25T12:25:43;3.63;;;1.30;;
29548;SDS011;16487;53.094;8.800;2023-04-25T12:28:12;2.27;;;1.10;;
29548;SDS011;16487;53.094;8.800;2023-04-25T12:30:53;4.90;;;1.37;;
29548;SDS011;16487;53.094;8.800;2023-04-25T12:33:22;3.47;;;1.40;;
29548;SDS011;16487;53.094;8.800;2023-04-25T12:35:50;3.33;;;1.87;;
29548;SDS011;16487;53.094;8.800;2023-04-25T12:38:20;2.87;;;1.67;;
29548;SDS011;16487;53.094;8.800;2023-04-25T12:40:53;3.07;;;1.30;;
29548;SDS011;16487;53.094;8.800;2023-04-25T12:43:22;5.53;;;1.40;;
29548;SDS011;16487;53.094;8.800;2023-04-25T12:45:50;3.40;;;1.67;;
29548;SDS011;16487;53.094;8.800;2023-04-25T12:48:19;4.30;;;1.60;;
29548;SDS011;16487;53.094;8.800;2023-04-25T12:50:49;3.60;;;1.80;;
29548;SDS011;16487;53.094;8.800;2023-04-25T12:53:17;5.70;;;1.57;;
29548;SDS011;16487;53.094;8.800;2023-04-25T12:55:45;7.43;;;1.70;;
29548;SDS011;16487;53.094;8.800;2023-04-25T12:58:14;2.80;;;1.70;;
29548;SDS011;16487;53.094;8.800;2023-04-25T13:00:43;4.87;;;1.70;;
29548;SDS011;16487;53.094;8.800;2023-04-25T13:03:10;3.03;;;2.40;;
29548;SDS011;16487;53.094;8.800;2023-04-25T13:05:38;2.30;;;0.90;;
29548;SDS011;16487;53.094;8.800;2023-04-25T13:08:05;5.47;;;2.53;;
29548;SDS011;16487;53.094;8.800;2023-04-25T13:10:33;0.80;;;0.77;;
29548;SDS011;16487;53.094;8.800;2023-04-25T13:13:00;3.07;;;1.43;;
29548;SDS011;16487;53.094;8.800;2023-04-25T13:15:29;3.90;;;1.60;;
29548;SDS011;16487;53.094;8.800;2023-04-25T13:17:57;2.67;;;1.10;;
29548;SDS011;16487;53.094;8.800;2023-04-25T13:20:24;2.10;;;1.10;;
29548;SDS011;16487;53.094;8.800;2023-04-25T13:22:51;2.20;;;1.10;;
29548;SDS011;16487;53.094;8.800;2023-04-25T13:25:19;2.50;;;1.23;;
29548;SDS011;16487;53.094;8.800;2023-04-25T13:27:46;2.67;;;1.23;;
29548;SDS011;16487;53.094;8.800;2023-04-25T13:30:13;2.00;;;1.00;;
29548;SDS011;16487;53.094;8.800;2023-04-25T13:32:42;3.87;;;1.30;;
29548;SDS011;16487;53.094;8.800;2023-04-25T13:35:10;6.53;;;1.30;;
29548;SDS011;16487;53.094;8.800;2023-04-25T13:37:39;3.63;;;1.40;;
29548;SDS011;16487;53.094;8.800;2023-04-25T13:40:10;5.37;;;1.63;;
29548;SDS011;16487;53.094;8.800;2023-04-25T13:42:38;2.97;;;1.43;;
29548;SDS011;16487;53.094;8.800;2023-04-25T13:45:06;3.30;;;1.73;;
29548;SDS011;16487;53.094;8.800;2023-04-25T13:47:34;3.37;;;1.37;;
29548;SDS011;16487;53.094;8.800;2023-04-25T13:50:04;2.20;;;1.40;;
29548;SDS011;16487;53.094;8.800;2023-04-25T13:52:32;3.33;;;1.70;;
29548;SDS011;16487;53.094;8.800;2023-04-25T13:54:59;3.83;;;1.20;;
29548;SDS011;16487;53.094;8.800;2023-04-25T13:57:27;5.60;;;1.73;;
29548;SDS011;16487;53.094;8.800;2023-04-25T13:59:54;2.30;;;0.90;;
29548;SDS011;16487;53.094;8.800;2023-04-25T14:02:21;4.33;;;1.63;;
29548;SDS011;16487;53.094;8.800;2023-04-25T14:04:49;2.07;;;1.20;;
29548;SDS011;16487;53.094;8.800;2023-04-25T14:07:17;1.13;;;0.70;;
29548;SDS011;16487;53.094;8.800;2023-04-25T14:09:45;4.13;;;1.13;;
29548;SDS011;16487;53.094;8.800;2023-04-25T14:12:12;5.67;;;1.43;;
29548;SDS011;16487;53.094;8.800;2023-04-25T14:14:40;4.03;;;0.80;;
29548;SDS011;16487;53.094;8.800;2023-04-25T14:17:07;1.77;;;1.20;;
29548;SDS011;16487;53.094;8.800;2023-04-25T14:19:35;3.07;;;1.27;;
29548;SDS011;16487;53.094;8.800;2023-04-25T14:22:02;3.93;;;1.17;;
29548;SDS011;16487;53.094;8.800;2023-04-25T14:24:31;5.00;;;1.43;;
29548;SDS011;16487;53.094;8.800;2023-04-25T14:26:58;2.57;;;1.43;;
29548;SDS011;16487;53.094;8.800;2023-04-25T14:29:26;2.50;;;1.23;;
29548;SDS011;16487;53.094;8.800;2023-04-25T14:31:53;3.13;;;1.63;;
29548;SDS011;16487;53.094;8.800;2023-04-25T14:34:20;6.57;;;1.90;;
29548;SDS011;16487;53.094;8.800;2023-04-25T14:36:48;2.70;;;1.70;;
29548;SDS011;16487;53.094;8.800;2023-04-25T14:39:15;3.67;;;1.13;;
29548;SDS011;16487;53.094;8.800;2023-04-25T14:41:44;1.70;;;0.90;;
29548;SDS011;16487;53.094;8.800;2023-04-25T14:44:12;1.73;;;0.90;;
29548;SDS011;16487;53.094;8.800;2023-04-25T14:46:39;4.57;;;1.47;;
29548;SDS011;16487;53.094;8.800;2023-04-25T14:49:06;5.30;;;1.27;;
29548;SDS011;16487;53.094;8.800;2023-04-25T14:51:34;3.77;;;1.40;;
29548;SDS011;16487;53.094;8.800;2023-04-25T14:54:02;4.33;;;1.57;;
29548;SDS011;16487;53.094;8.800;2023-04-25T14:56:29;2.93;;;1.53;;
29548;SDS011;16487;53.094;8.800;2023-04-25T14:58:58;4.67;;;1.50;;
29548;SDS011;16487;53.094;8.800;2023-04-25T15:01:25;4.10;;;1.70;;
29548;SDS011;16487;53.094;8.800;2023-04-25T15:03:53;2.83;;;1.50;;
29548;SDS011;16487;53.094;8.800;2023-04-25T15:06:21;7.50;;;1.87;;
29548;SDS011;16487;53.094;8.800;2023-04-25T15:08:49;5.63;;;2.10;;